Impacts METAR Board
IDs:

KBWI - Baltimore-Washington, MD, US

Updated at: 0100 UTC 16 Oct 2018
Potential Impact None Slight Moderate High
Time 15/13Z 15/14Z 15/15Z 15/16Z 15/17Z 15/18Z 15/19Z 15/20Z 15/21Z 15/22Z 15/23Z 16/00Z 16/01Z
Temp59 60 62 63 66 66 65 67 66 67 66 67 70
Dewpt58 59 60 61 62 63 63 64 65 65 65 65 65
Altim30.11 30.09 30.08 30.06 30.03 30.03 30.00 29.98 29.97 29.95 29.94 29.95 29.94
VIS2.5 6 8 10 10 6 10 10 9 10 10 10 10
CIG8 7 8 9 23 110 110 110 85 95 140 140 120
CoverOVCOVCOVCBKNBKNOVCBKNOVCOVCOVCBKNBKNBKN
FltCatIFRIFRIFRIFRMVFRVFRVFRVFRVFRVFRVFRVFRVFR
WXRA BR-RA BR-------RA BR---RA-RA--------
WDir220200210220230230210210220200260240230
WSpd7 7 8 6 5 5 6 6 3 4 5 6 9
WGst-- -- -- -- -- -- -- -- -- -- -- -- 17
Raw hourly METARs
KBWI 151303Z 22007KT 2 1/2SM RA BR BKN008 BKN023 OVC043 15/14 A3011 RMK AO2 P0002 T01500144 $
KBWI 151354Z 20007KT 6SM -RA BR BKN007 OVC012 16/15 A3009 RMK AO2 SLP190 P0004 T01560150
KBWI 151454Z 21008KT 8SM BKN008 OVC013 17/16 A3008 RMK AO2 RAE11 SLP184 P0000 60005 T01670156 58010
KBWI 151554Z 22006KT 10SM BKN009 BKN013 17/16 A3006 RMK AO2 SLP180 T01720161
KBWI 151654Z 23005KT 10SM FEW010 BKN023 BKN100 19/17 A3003 RMK AO2 SLP169 T01890167 $
KBWI 151754Z 23005KT 6SM -RA BR SCT026 SCT060 OVC110 19/17 A3003 RMK AO2 RAB06 SLP167 P0001 60006 T01890172 10200 20144 56017
KBWI 151854Z 21006KT 10SM FEW023 SCT060 BKN110 BKN250 18/17 A3000 RMK AO2 RAE41 SLP159 P0002 T01830172
KBWI 151954Z 21006KT 10SM -RA FEW023 SCT060 BKN110 OVC250 19/18 A2998 RMK AO2 RAB14 SLP153 P0000 T01940178
KBWI 152054Z 22003KT 9SM -RA FEW065 BKN085 BKN110 OVC250 19/18 A2997 RMK AO2 SLP147 P0000 60002 T01890183 56020
KBWI 152154Z 20004KT 10SM FEW070 BKN095 BKN120 OVC180 19/18 A2995 RMK AO2 RAE36 SLP140 P0001 T01940183
KBWI 152254Z 26005KT 10SM FEW110 BKN140 BKN180 19/18 A2994 RMK AO2 SLP139 T01890183
KBWI 152354Z 24006KT 10SM FEW100 BKN140 BKN180 19/18 A2995 RMK AO2 SLP143 60003 T01940183 10194 20183 55004
KBWI 160054Z 23009G17KT 10SM FEW070 BKN120 BKN250 21/18 A2994 RMK AO2 SLP138 T02110183



Page loaded:  01:42 UTC  |   06:42 PM Pacific  |   07:42 PM Mountain  |   08:42 PM Central  |   09:42 PM Eastern

 

ADVISORIES

FORECASTS

FORECASTS

OBSERVATIONS

USER TOOLS

ABOUT US